JAL48 EFHK-RJTT
Flight info
| Callsign | JAL48 |
|---|---|
| Flight time | N/A |
| Altitude | 36000 |
| Route | TEVRU Y75 USUPO DCT VATAX DCT 78N000E/M085F360 81N020W 82N040W 82N060W/N0501F360 82N080W 82N100W/N0501F380 81N120W DCT OMEKA DCT JUJXI DCT MARCC/N0493F400 R338 NATES R220 NUZAN/N0497F410 R220 NANAC/N0487F400 Y810 AKRIT Y807 POLIX |
| Aircraft | B788/H-SDE1E2E3FGHIJ2J3J4J5M1RWXY/LB1D1 |
Departure
| Time | 2026-05-07 13:50 |
|---|---|
| Airport | Helsinki Vantaa Airport (EFHK) |
Arrival
| Time | N/A |
|---|---|
| Airport | Tokyo Haneda International Airport (RJTT) |
| Time | Latitude | Longitude | Altitude | Speed | Heading |
|---|---|---|---|---|---|
| 2026-05-07 13:34 | 60.31412 | 24.95511 | 169 ft | 0 kts | 137° |
| 2026-05-07 13:36 | 60.31418 | 24.95500 | 169 ft | 2 kts | 137° |
| 2026-05-07 13:36 | 60.31428 | 24.95481 | 169 ft | 2 kts | 137° |
| 2026-05-07 13:36 | 60.31438 | 24.95462 | 169 ft | 2 kts | 136° |
| 2026-05-07 13:36 | 60.31448 | 24.95442 | 169 ft | 2 kts | 133° |
| 2026-05-07 13:37 | 60.31456 | 24.95422 | 169 ft | 2 kts | 124° |
| 2026-05-07 13:37 | 60.31459 | 24.95405 | 169 ft | 1 kts | 102° |
| 2026-05-07 13:37 | 60.31458 | 24.95389 | 169 ft | 1 kts | 76° |
| 2026-05-07 13:37 | 60.31455 | 24.95377 | 169 ft | 1 kts | 62° |
| 2026-05-07 13:38 | 60.31452 | 24.95368 | 169 ft | 1 kts | 55° |
| 2026-05-07 13:38 | 60.31449 | 24.95359 | 169 ft | 1 kts | 51° |
| 2026-05-07 13:38 | 60.31448 | 24.95358 | 169 ft | 0 kts | 51° |
| 2026-05-07 13:42 | 60.31449 | 24.95360 | 169 ft | 1 kts | 51° |
| 2026-05-07 13:43 | 60.31458 | 24.95382 | 169 ft | 3 kts | 46° |
| 2026-05-07 13:43 | 60.31476 | 24.95421 | 169 ft | 5 kts | 47° |
| 2026-05-07 13:43 | 60.31510 | 24.95494 | 169 ft | 9 kts | 47° |
| 2026-05-07 13:43 | 60.31560 | 24.95605 | 169 ft | 12 kts | 47° |
| 2026-05-07 13:44 | 60.31622 | 24.95672 | 169 ft | 10 kts | 341° |
| 2026-05-07 13:44 | 60.31681 | 24.95577 | 169 ft | 13 kts | 318° |
| 2026-05-07 13:44 | 60.31756 | 24.95597 | 169 ft | 13 kts | 45° |
| 2026-05-07 13:44 | 60.31826 | 24.95746 | 169 ft | 16 kts | 47° |
| 2026-05-07 13:45 | 60.31909 | 24.95928 | 169 ft | 19 kts | 46° |
| 2026-05-07 13:45 | 60.32006 | 24.95884 | 169 ft | 17 kts | 316° |
| 2026-05-07 13:45 | 60.32102 | 24.95703 | 168 ft | 21 kts | 317° |
| 2026-05-07 13:45 | 60.32215 | 24.95496 | 169 ft | 23 kts | 317° |
| 2026-05-07 13:46 | 60.32338 | 24.95278 | 172 ft | 23 kts | 335° |
| 2026-05-07 13:46 | 60.32489 | 24.95179 | 176 ft | 23 kts | 342° |
| 2026-05-07 13:46 | 60.32635 | 24.95087 | 180 ft | 20 kts | 342° |
| 2026-05-07 13:46 | 60.32759 | 24.95007 | 198 ft | 17 kts | 342° |
| 2026-05-07 13:47 | 60.32863 | 24.94939 | 201 ft | 14 kts | 341° |
| 2026-05-07 13:47 | 60.32937 | 24.94839 | 202 ft | 12 kts | 318° |
| 2026-05-07 13:47 | 60.32992 | 24.94742 | 200 ft | 9 kts | 318° |
| 2026-05-07 13:47 | 60.33041 | 24.94651 | 208 ft | 10 kts | 317° |
| 2026-05-07 13:48 | 60.33089 | 24.94561 | 209 ft | 9 kts | 317° |
| 2026-05-07 13:48 | 60.33131 | 24.94469 | 205 ft | 8 kts | 290° |
| 2026-05-07 13:48 | 60.33118 | 24.94393 | 199 ft | 5 kts | 229° |
| 2026-05-07 13:48 | 60.33111 | 24.94379 | 206 ft | 3 kts | 227° |
| 2026-05-07 13:49 | 60.33007 | 24.94151 | 208 ft | 49 kts | 227° |
| 2026-05-07 13:49 | 60.32648 | 24.93357 | 201 ft | 103 kts | 227° |
| 2026-05-07 13:49 | 60.32042 | 24.92032 | 167 ft | 152 kts | 227° |
| 2026-05-07 13:49 | 60.31265 | 24.90296 | 451 ft | 169 kts | 231° |
| 2026-05-07 13:50 | 60.30520 | 24.88540 | 1263 ft | 163 kts | 234° |
| 2026-05-07 13:50 | 60.30128 | 24.86306 | 1625 ft | 186 kts | 265° |
| 2026-05-07 13:50 | 60.30473 | 24.83720 | 2150 ft | 199 kts | 290° |
| 2026-05-07 13:50 | 60.31044 | 24.81000 | 2474 ft | 223 kts | 292° |
| 2026-05-07 13:51 | 60.31703 | 24.77968 | 2770 ft | 250 kts | 294° |
| 2026-05-07 13:51 | 60.32590 | 24.74863 | 3482 ft | 255 kts | 300° |
| 2026-05-07 13:51 | 60.33424 | 24.71726 | 4420 ft | 254 kts | 298° |
| 2026-05-07 13:51 | 60.34250 | 24.68568 | 5287 ft | 255 kts | 300° |
| 2026-05-07 13:52 | 60.35152 | 24.65481 | 6042 ft | 258 kts | 310° |
| 2026-05-07 13:52 | 60.36545 | 24.63298 | 6847 ft | 259 kts | 334° |
| 2026-05-07 13:52 | 60.38297 | 24.62489 | 7546 ft | 264 kts | 0° |
| 2026-05-07 13:52 | 60.40156 | 24.63110 | 8174 ft | 272 kts | 11° |
| 2026-05-07 13:53 | 60.41987 | 24.63957 | 8855 ft | 276 kts | 11° |
| 2026-05-07 13:53 | 60.43879 | 24.64835 | 9532 ft | 281 kts | 11° |
| 2026-05-07 13:53 | 60.45808 | 24.65712 | 10167 ft | 287 kts | 11° |
| 2026-05-07 13:53 | 60.47842 | 24.66633 | 10260 ft | 313 kts | 11° |
| 2026-05-07 13:54 | 60.50056 | 24.67643 | 10301 ft | 338 kts | 11° |
| 2026-05-07 13:54 | 60.52432 | 24.68734 | 10365 ft | 361 kts | 11° |
| 2026-05-07 13:54 | 60.54902 | 24.69872 | 10987 ft | 365 kts | 11° |
| 2026-05-07 13:54 | 60.57391 | 24.71016 | 11587 ft | 371 kts | 11° |
| 2026-05-07 13:55 | 60.59924 | 24.72178 | 12198 ft | 375 kts | 10° |
| 2026-05-07 13:55 | 60.62490 | 24.73360 | 12789 ft | 381 kts | 9° |
| 2026-05-07 13:55 | 60.65092 | 24.74562 | 13381 ft | 385 kts | 9° |
| 2026-05-07 13:55 | 60.67720 | 24.75778 | 13933 ft | 391 kts | 9° |
| 2026-05-07 13:56 | 60.70388 | 24.77013 | 14492 ft | 395 kts | 8° |
| 2026-05-07 13:56 | 60.73081 | 24.78263 | 15022 ft | 399 kts | 8° |
| 2026-05-07 13:56 | 60.75801 | 24.79528 | 15560 ft | 403 kts | 8° |
| 2026-05-07 13:56 | 60.78549 | 24.80806 | 16086 ft | 407 kts | 8° |
| 2026-05-07 13:57 | 60.81316 | 24.82096 | 16618 ft | 410 kts | 7° |
| 2026-05-07 13:57 | 60.84134 | 24.82956 | 17098 ft | 410 kts | 1° |
| 2026-05-07 13:57 | 60.86988 | 24.83601 | 17601 ft | 414 kts | 1° |
| 2026-05-07 13:57 | 60.89870 | 24.84290 | 18122 ft | 418 kts | 1° |
| 2026-05-07 13:58 | 60.92692 | 24.84972 | 18557 ft | 422 kts | 1° |
| 2026-05-07 13:58 | 60.95621 | 24.85663 | 18981 ft | 425 kts | 0° |
| 2026-05-07 13:58 | 60.98567 | 24.86354 | 19394 ft | 429 kts | 0° |
| 2026-05-07 13:58 | 61.01545 | 24.87063 | 19819 ft | 432 kts | 0° |
| 2026-05-07 13:59 | 61.04542 | 24.87782 | 20228 ft | 436 kts | 0° |
| 2026-05-07 13:59 | 61.07567 | 24.88503 | 20640 ft | 439 kts | 0° |
| 2026-05-07 13:59 | 61.10615 | 24.89229 | 21044 ft | 442 kts | 0° |
| 2026-05-07 13:59 | 61.13645 | 24.89956 | 21448 ft | 446 kts | 0° |
| 2026-05-07 14:00 | 61.16771 | 24.90708 | 21843 ft | 449 kts | 0° |
| 2026-05-07 14:00 | 61.19887 | 24.91457 | 22193 ft | 452 kts | 0° |
| 2026-05-07 14:00 | 61.23027 | 24.92213 | 22570 ft | 456 kts | 0° |
| 2026-05-07 14:00 | 61.26190 | 24.92977 | 22910 ft | 459 kts | 0° |
| 2026-05-07 14:01 | 61.29333 | 24.93738 | 23261 ft | 462 kts | 360° |
| 2026-05-07 14:01 | 61.32574 | 24.94524 | 23594 ft | 465 kts | 360° |
| 2026-05-07 14:01 | 61.35801 | 24.95309 | 23904 ft | 468 kts | 360° |
| 2026-05-07 14:01 | 61.39004 | 24.96089 | 24180 ft | 471 kts | 360° |
| 2026-05-07 14:02 | 61.42270 | 24.96886 | 24463 ft | 474 kts | 360° |
| 2026-05-07 14:02 | 61.45597 | 24.97700 | 24753 ft | 476 kts | 360° |
| 2026-05-07 14:02 | 61.48853 | 24.98498 | 25017 ft | 479 kts | 360° |
| 2026-05-07 14:02 | 61.52167 | 24.99313 | 25308 ft | 481 kts | 360° |
| 2026-05-07 14:03 | 61.55498 | 25.00132 | 25576 ft | 483 kts | 360° |
| 2026-05-07 14:03 | 61.58846 | 25.00888 | 25839 ft | 482 kts | 355° |
| 2026-05-07 14:03 | 61.62192 | 25.00622 | 26111 ft | 472 kts | 343° |
| 2026-05-07 14:03 | 61.65333 | 24.99223 | 26367 ft | 464 kts | 336° |
| 2026-05-07 14:04 | 61.68451 | 24.97430 | 26628 ft | 466 kts | 336° |
| 2026-05-07 14:04 | 61.71587 | 24.95617 | 26875 ft | 468 kts | 336° |
| 2026-05-07 14:04 | 61.74739 | 24.93796 | 27142 ft | 470 kts | 336° |
| 2026-05-07 14:04 | 61.77903 | 24.91971 | 27399 ft | 472 kts | 336° |
| 2026-05-07 14:05 | 61.81070 | 24.90138 | 27662 ft | 474 kts | 336° |
| 2026-05-07 14:05 | 61.84257 | 24.88285 | 27937 ft | 476 kts | 336° |
| 2026-05-07 14:05 | 61.87456 | 24.86423 | 28208 ft | 477 kts | 336° |
| 2026-05-07 14:05 | 61.90668 | 24.84550 | 28432 ft | 479 kts | 336° |
| 2026-05-07 14:06 | 61.93892 | 24.82666 | 28676 ft | 481 kts | 336° |
| 2026-05-07 14:06 | 61.97120 | 24.80775 | 28918 ft | 483 kts | 336° |
| 2026-05-07 14:06 | 62.00367 | 24.78869 | 29161 ft | 485 kts | 336° |
| 2026-05-07 14:06 | 62.03626 | 24.76952 | 29398 ft | 487 kts | 336° |
| 2026-05-07 14:07 | 62.06898 | 24.75022 | 29622 ft | 488 kts | 336° |
| 2026-05-07 14:07 | 62.10172 | 24.73087 | 29847 ft | 490 kts | 336° |
| 2026-05-07 14:07 | 62.12353 | 24.71796 | 30004 ft | 491 kts | 336° |
| 2026-05-07 14:07 | 62.15655 | 24.69838 | 30205 ft | 493 kts | 336° |
| 2026-05-07 14:08 | 62.18969 | 24.67868 | 30391 ft | 495 kts | 336° |
| 2026-05-07 14:08 | 62.23372 | 24.65243 | 30658 ft | 496 kts | 336° |
| 2026-05-07 14:08 | 62.25615 | 24.63904 | 30788 ft | 497 kts | 337° |
| 2026-05-07 14:08 | 62.28957 | 24.61903 | 30966 ft | 499 kts | 337° |
| 2026-05-07 14:09 | 62.32307 | 24.59893 | 31186 ft | 500 kts | 337° |
| 2026-05-07 14:09 | 62.35655 | 24.57882 | 31470 ft | 499 kts | 337° |
| 2026-05-07 14:09 | 62.38990 | 24.55872 | 31742 ft | 499 kts | 337° |
| 2026-05-07 14:09 | 62.42332 | 24.53851 | 32007 ft | 498 kts | 338° |
| 2026-05-07 14:10 | 62.45671 | 24.51828 | 32268 ft | 498 kts | 338° |
| 2026-05-07 14:10 | 62.49009 | 24.49803 | 32529 ft | 498 kts | 338° |
| 2026-05-07 14:10 | 62.53417 | 24.47121 | 32896 ft | 497 kts | 338° |
| 2026-05-07 14:10 | 62.55667 | 24.45748 | 33058 ft | 497 kts | 338° |
| 2026-05-07 14:11 | 62.58952 | 24.43739 | 33305 ft | 497 kts | 338° |
| 2026-05-07 14:11 | 62.62325 | 24.41672 | 33582 ft | 496 kts | 338° |
| 2026-05-07 14:11 | 62.65596 | 24.39664 | 33836 ft | 496 kts | 338° |
| 2026-05-07 14:11 | 62.68919 | 24.37619 | 34089 ft | 496 kts | 338° |
| 2026-05-07 14:12 | 62.72229 | 24.35576 | 34286 ft | 496 kts | 338° |
| 2026-05-07 14:12 | 62.75552 | 24.33520 | 34459 ft | 496 kts | 338° |
| 2026-05-07 14:12 | 62.78874 | 24.31462 | 34680 ft | 496 kts | 338° |
| 2026-05-07 14:12 | 62.82186 | 24.29405 | 34869 ft | 496 kts | 338° |
| 2026-05-07 14:13 | 62.85508 | 24.27336 | 35066 ft | 496 kts | 338° |
| 2026-05-07 14:13 | 62.88819 | 24.25268 | 35250 ft | 496 kts | 338° |
| 2026-05-07 14:13 | 62.92142 | 24.23189 | 35447 ft | 496 kts | 338° |
| 2026-05-07 14:13 | 62.95465 | 24.21105 | 35645 ft | 496 kts | 338° |
| 2026-05-07 14:14 | 62.98777 | 24.19023 | 35838 ft | 496 kts | 339° |
| 2026-05-07 14:14 | 63.02100 | 24.16929 | 36033 ft | 496 kts | 339° |
| 2026-05-07 14:14 | 63.05433 | 24.14822 | 36057 ft | 500 kts | 339° |
| 2026-05-07 14:15 | 63.12123 | 24.10584 | 36058 ft | 499 kts | 339° |
| 2026-05-07 14:15 | 63.18765 | 24.06354 | 36061 ft | 495 kts | 339° |
| 2026-05-07 14:16 | 63.25335 | 24.02146 | 36058 ft | 495 kts | 339° |
| 2026-05-07 14:16 | 63.31959 | 23.97888 | 36057 ft | 495 kts | 339° |
| 2026-05-07 14:17 | 63.38579 | 23.93610 | 36060 ft | 496 kts | 339° |
| 2026-05-07 14:17 | 63.45201 | 23.89311 | 36068 ft | 496 kts | 339° |
| 2026-05-07 14:18 | 63.51821 | 23.84992 | 36065 ft | 496 kts | 339° |
| 2026-05-07 14:18 | 63.58449 | 23.80647 | 36066 ft | 496 kts | 339° |
| 2026-05-07 14:19 | 63.65067 | 23.76288 | 36067 ft | 496 kts | 339° |
| 2026-05-07 14:19 | 63.71686 | 23.71907 | 36063 ft | 496 kts | 339° |
| 2026-05-07 14:20 | 63.78307 | 23.67501 | 36061 ft | 497 kts | 339° |
| 2026-05-07 14:20 | 63.84942 | 23.63067 | 36059 ft | 496 kts | 339° |
| 2026-05-07 14:21 | 63.91560 | 23.58621 | 36065 ft | 496 kts | 339° |
| 2026-05-07 14:21 | 63.98185 | 23.54149 | 36065 ft | 497 kts | 339° |
| 2026-05-07 14:22 | 64.04821 | 23.49647 | 36064 ft | 497 kts | 339° |
| 2026-05-07 14:22 | 64.11448 | 23.45128 | 36070 ft | 498 kts | 339° |
| 2026-05-07 14:23 | 64.18090 | 23.40577 | 36057 ft | 498 kts | 339° |
| 2026-05-07 14:23 | 64.24717 | 23.36013 | 36066 ft | 497 kts | 339° |
| 2026-05-07 14:24 | 64.31341 | 23.31428 | 36070 ft | 498 kts | 339° |
| 2026-05-07 14:24 | 64.37974 | 23.26816 | 36072 ft | 497 kts | 339° |
| 2026-05-07 14:25 | 64.44585 | 23.22193 | 36068 ft | 496 kts | 339° |
| 2026-05-07 14:25 | 64.51199 | 23.17546 | 36067 ft | 496 kts | 339° |
| 2026-05-07 14:26 | 64.57817 | 23.12873 | 36068 ft | 497 kts | 339° |
| 2026-05-07 14:26 | 64.64385 | 23.08210 | 36063 ft | 497 kts | 339° |
| 2026-05-07 14:27 | 64.70997 | 23.03493 | 36066 ft | 496 kts | 339° |
| 2026-05-07 14:27 | 64.77586 | 22.98769 | 36064 ft | 495 kts | 339° |
| 2026-05-07 14:28 | 64.84175 | 22.94019 | 36061 ft | 495 kts | 339° |
| 2026-05-07 14:28 | 64.90759 | 22.89250 | 36056 ft | 496 kts | 339° |
| 2026-05-07 14:29 | 64.97358 | 22.84444 | 36061 ft | 496 kts | 339° |
| 2026-05-07 14:29 | 65.03956 | 22.79615 | 36059 ft | 497 kts | 339° |
| 2026-05-07 14:30 | 65.10570 | 22.74748 | 36053 ft | 498 kts | 339° |
| 2026-05-07 14:30 | 65.17190 | 22.69853 | 36054 ft | 498 kts | 339° |
| 2026-05-07 14:31 | 65.23795 | 22.64942 | 36051 ft | 498 kts | 339° |
| 2026-05-07 14:31 | 65.30364 | 22.60032 | 36051 ft | 497 kts | 339° |
| 2026-05-07 14:32 | 65.36964 | 22.55073 | 36047 ft | 497 kts | 339° |
| 2026-05-07 14:32 | 65.43568 | 22.50085 | 36046 ft | 498 kts | 339° |
| 2026-05-07 14:33 | 65.50167 | 22.45076 | 36051 ft | 497 kts | 339° |
| 2026-05-07 14:33 | 65.56764 | 22.40039 | 36053 ft | 497 kts | 339° |
| 2026-05-07 14:34 | 65.63347 | 22.34988 | 36052 ft | 497 kts | 339° |
| 2026-05-07 14:34 | 65.69943 | 22.29898 | 36052 ft | 498 kts | 339° |
| 2026-05-07 14:35 | 65.76538 | 22.24784 | 36049 ft | 498 kts | 339° |
| 2026-05-07 14:35 | 65.83141 | 22.19633 | 36043 ft | 498 kts | 339° |
| 2026-05-07 14:36 | 65.89730 | 22.14468 | 36039 ft | 497 kts | 339° |
| 2026-05-07 14:36 | 65.96319 | 22.09273 | 36038 ft | 497 kts | 339° |
| 2026-05-07 14:37 | 66.02903 | 22.04055 | 36038 ft | 496 kts | 339° |
| 2026-05-07 14:37 | 66.12749 | 21.96198 | 36036 ft | 496 kts | 339° |
| 2026-05-07 14:38 | 66.19307 | 21.90929 | 36034 ft | 496 kts | 339° |
| 2026-05-07 14:38 | 66.25879 | 21.85620 | 36029 ft | 496 kts | 339° |
| 2026-05-07 14:39 | 66.32436 | 21.80293 | 36032 ft | 496 kts | 339° |
| 2026-05-07 14:39 | 66.39002 | 21.74931 | 36044 ft | 496 kts | 339° |
| 2026-05-07 14:40 | 66.45558 | 21.69546 | 36034 ft | 496 kts | 339° |
| 2026-05-07 14:40 | 66.52125 | 21.64122 | 36035 ft | 497 kts | 339° |
| 2026-05-07 14:41 | 66.58689 | 21.58671 | 36039 ft | 497 kts | 339° |
| 2026-05-07 14:41 | 66.65219 | 21.53218 | 36038 ft | 497 kts | 339° |
| 2026-05-07 14:42 | 66.71828 | 21.47668 | 36045 ft | 497 kts | 339° |
| 2026-05-07 14:42 | 66.78342 | 21.42167 | 36039 ft | 497 kts | 339° |
| 2026-05-07 14:43 | 66.84908 | 21.36590 | 36040 ft | 497 kts | 339° |
| 2026-05-07 14:43 | 66.91453 | 21.31000 | 36030 ft | 496 kts | 339° |
| 2026-05-07 14:44 | 66.97992 | 21.25384 | 36025 ft | 495 kts | 339° |
| 2026-05-07 14:44 | 67.04515 | 21.19749 | 36016 ft | 495 kts | 339° |
| 2026-05-07 14:45 | 67.11048 | 21.14073 | 36008 ft | 495 kts | 339° |
| 2026-05-07 14:45 | 67.17570 | 21.08375 | 36003 ft | 495 kts | 339° |
| 2026-05-07 14:46 | 67.24094 | 21.02642 | 36008 ft | 495 kts | 339° |
| 2026-05-07 14:46 | 67.30609 | 20.96883 | 36019 ft | 495 kts | 339° |
| 2026-05-07 14:47 | 67.37125 | 20.91092 | 36027 ft | 496 kts | 339° |
| 2026-05-07 14:47 | 67.43650 | 20.85258 | 36036 ft | 496 kts | 339° |
| 2026-05-07 14:48 | 67.50159 | 20.79405 | 36046 ft | 495 kts | 339° |
| 2026-05-07 14:48 | 67.56667 | 20.73518 | 36032 ft | 494 kts | 339° |
| 2026-05-07 14:49 | 67.63161 | 20.67610 | 36022 ft | 495 kts | 339° |
| 2026-05-07 14:49 | 67.69668 | 20.61656 | 36016 ft | 495 kts | 339° |
| 2026-05-07 14:50 | 67.76161 | 20.55679 | 36009 ft | 494 kts | 339° |
| 2026-05-07 14:50 | 67.82659 | 20.49661 | 36005 ft | 495 kts | 339° |
| 2026-05-07 14:51 | 67.89158 | 20.43608 | 36005 ft | 495 kts | 339° |
| 2026-05-07 14:51 | 67.95643 | 20.37532 | 36009 ft | 494 kts | 339° |
| 2026-05-07 14:52 | 68.02087 | 20.31458 | 36010 ft | 495 kts | 339° |
| 2026-05-07 14:52 | 68.08615 | 20.25269 | 36024 ft | 495 kts | 339° |
| 2026-05-07 14:53 | 68.15064 | 20.19118 | 36040 ft | 495 kts | 339° |
| 2026-05-07 14:53 | 68.21542 | 20.12901 | 36048 ft | 494 kts | 339° |
| 2026-05-07 14:54 | 68.28025 | 20.06643 | 36052 ft | 495 kts | 338° |
| 2026-05-07 14:54 | 68.34501 | 20.00354 | 36060 ft | 495 kts | 338° |
| 2026-05-07 14:55 | 68.40985 | 19.94018 | 36056 ft | 495 kts | 338° |
| 2026-05-07 14:55 | 68.47470 | 19.87641 | 36054 ft | 496 kts | 338° |
| 2026-05-07 14:56 | 68.53954 | 19.81229 | 36056 ft | 496 kts | 338° |
| 2026-05-07 14:56 | 68.60448 | 19.74766 | 36058 ft | 496 kts | 338° |
| 2026-05-07 14:57 | 68.66921 | 19.68284 | 36054 ft | 495 kts | 338° |
| 2026-05-07 14:57 | 68.72299 | 19.62868 | 36054 ft | 494 kts | 338° |
| 2026-05-07 14:58 | 68.78800 | 19.56285 | 36051 ft | 494 kts | 338° |
| 2026-05-07 14:58 | 68.85191 | 19.49772 | 36052 ft | 493 kts | 338° |
| 2026-05-07 14:59 | 68.91628 | 19.43171 | 36049 ft | 493 kts | 338° |
| 2026-05-07 14:59 | 68.98068 | 19.36526 | 36051 ft | 495 kts | 338° |
| 2026-05-07 15:00 | 69.04529 | 19.29817 | 36052 ft | 496 kts | 338° |
| 2026-05-07 15:00 | 69.10985 | 19.23073 | 36051 ft | 495 kts | 338° |
| 2026-05-07 15:01 | 69.17436 | 19.16290 | 36053 ft | 494 kts | 338° |
| 2026-05-07 15:01 | 69.23861 | 19.09491 | 36052 ft | 493 kts | 338° |
| 2026-05-07 15:02 | 69.30279 | 19.02658 | 36049 ft | 492 kts | 338° |
| 2026-05-07 15:02 | 69.36686 | 18.95791 | 36046 ft | 493 kts | 338° |
| 2026-05-07 15:03 | 69.43096 | 18.88878 | 36052 ft | 493 kts | 338° |
| 2026-05-07 15:03 | 69.49511 | 18.81916 | 36057 ft | 494 kts | 338° |
| 2026-05-07 15:04 | 69.55943 | 18.74890 | 36053 ft | 495 kts | 338° |
| 2026-05-07 15:04 | 69.62368 | 18.67825 | 36051 ft | 495 kts | 338° |
| 2026-05-07 15:05 | 69.68784 | 18.60725 | 36054 ft | 494 kts | 338° |
| 2026-05-07 15:05 | 69.75192 | 18.53588 | 36059 ft | 494 kts | 338° |
| 2026-05-07 15:06 | 69.81600 | 18.46403 | 36056 ft | 493 kts | 338° |
| 2026-05-07 15:06 | 69.87995 | 18.39187 | 36060 ft | 493 kts | 338° |
| 2026-05-07 15:07 | 69.94387 | 18.31926 | 36052 ft | 493 kts | 338° |
| 2026-05-07 15:07 | 70.00780 | 18.24616 | 36064 ft | 494 kts | 338° |
| 2026-05-07 15:08 | 70.07186 | 18.17244 | 36058 ft | 494 kts | 338° |
| 2026-05-07 15:08 | 70.13582 | 18.09833 | 36062 ft | 494 kts | 338° |
| 2026-05-07 15:09 | 70.19970 | 18.02382 | 36063 ft | 494 kts | 338° |
| 2026-05-07 15:09 | 70.26348 | 17.94894 | 36060 ft | 493 kts | 338° |
| 2026-05-07 15:10 | 70.32734 | 17.87345 | 36066 ft | 493 kts | 338° |
| 2026-05-07 15:10 | 70.39102 | 17.79766 | 36064 ft | 493 kts | 338° |
| 2026-05-07 15:11 | 70.45444 | 17.71913 | 36077 ft | 493 kts | 334° |
| 2026-05-07 15:11 | 70.51703 | 17.63508 | 36060 ft | 494 kts | 335° |
| 2026-05-07 15:12 | 70.57920 | 17.55052 | 36065 ft | 494 kts | 335° |
| 2026-05-07 15:12 | 70.64209 | 17.46438 | 36068 ft | 494 kts | 335° |
| 2026-05-07 15:13 | 70.70425 | 17.37887 | 36068 ft | 494 kts | 335° |
| 2026-05-07 15:13 | 70.76664 | 17.29222 | 36068 ft | 493 kts | 335° |
| 2026-05-07 15:14 | 70.82898 | 17.20523 | 36072 ft | 493 kts | 335° |
| 2026-05-07 15:14 | 70.89136 | 17.11744 | 36077 ft | 494 kts | 335° |
| 2026-05-07 15:15 | 70.95377 | 17.02909 | 36073 ft | 494 kts | 335° |
| 2026-05-07 15:15 | 71.01609 | 16.94019 | 36078 ft | 495 kts | 335° |
| 2026-05-07 15:16 | 71.07853 | 16.85053 | 36075 ft | 495 kts | 335° |
| 2026-05-07 15:16 | 71.14088 | 16.76034 | 36081 ft | 495 kts | 335° |
| 2026-05-07 15:17 | 71.20317 | 16.66960 | 36083 ft | 495 kts | 335° |
| 2026-05-07 15:17 | 71.26541 | 16.57831 | 36084 ft | 494 kts | 335° |
| 2026-05-07 15:18 | 71.32746 | 16.48663 | 36085 ft | 494 kts | 334° |
| 2026-05-07 15:18 | 71.38956 | 16.39421 | 36084 ft | 494 kts | 334° |
| 2026-05-07 15:19 | 71.45162 | 16.30121 | 36086 ft | 495 kts | 334° |
| 2026-05-07 15:19 | 71.51371 | 16.20748 | 36089 ft | 495 kts | 334° |
| 2026-05-07 15:20 | 71.57563 | 16.11333 | 36089 ft | 494 kts | 334° |
| 2026-05-07 15:20 | 71.63753 | 16.01852 | 36087 ft | 494 kts | 334° |
| 2026-05-07 15:21 | 71.69935 | 15.92316 | 36091 ft | 493 kts | 334° |
| 2026-05-07 15:21 | 71.76102 | 15.82732 | 36091 ft | 494 kts | 334° |
| 2026-05-07 15:22 | 71.82275 | 15.73068 | 36090 ft | 494 kts | 334° |
| 2026-05-07 15:22 | 71.88434 | 15.63355 | 36098 ft | 494 kts | 334° |
| 2026-05-07 15:23 | 71.94600 | 15.53560 | 36098 ft | 494 kts | 334° |
| 2026-05-07 15:23 | 72.00761 | 15.43700 | 36097 ft | 494 kts | 334° |
| 2026-05-07 15:24 | 72.06914 | 15.33779 | 36101 ft | 494 kts | 334° |
| 2026-05-07 15:24 | 72.13070 | 15.23779 | 36105 ft | 494 kts | 334° |
| 2026-05-07 15:25 | 72.18171 | 15.15436 | 36107 ft | 494 kts | 334° |
| 2026-05-07 15:25 | 72.25171 | 15.03901 | 36110 ft | 495 kts | 334° |
| 2026-05-07 15:26 | 72.31291 | 14.93736 | 36114 ft | 495 kts | 334° |
| 2026-05-07 15:26 | 72.37421 | 14.83476 | 36108 ft | 494 kts | 333° |
| 2026-05-07 15:27 | 72.43554 | 14.73132 | 36114 ft | 495 kts | 333° |
| 2026-05-07 15:27 | 72.49685 | 14.62712 | 36118 ft | 496 kts | 333° |
| 2026-05-07 15:28 | 72.55824 | 14.52199 | 36118 ft | 496 kts | 333° |
| 2026-05-07 15:28 | 72.61947 | 14.41632 | 36120 ft | 496 kts | 333° |
| 2026-05-07 15:29 | 72.68068 | 14.30986 | 36119 ft | 495 kts | 333° |
| 2026-05-07 15:29 | 72.74186 | 14.20263 | 36119 ft | 496 kts | 333° |
| 2026-05-07 15:30 | 72.80292 | 14.09475 | 36125 ft | 496 kts | 333° |
| 2026-05-07 15:30 | 72.86406 | 13.98590 | 36123 ft | 496 kts | 333° |
| 2026-05-07 15:31 | 72.92506 | 13.87644 | 36130 ft | 496 kts | 333° |
| 2026-05-07 15:31 | 72.98604 | 13.76614 | 36127 ft | 496 kts | 333° |
| 2026-05-07 15:32 | 73.04690 | 13.65516 | 36134 ft | 496 kts | 333° |
| 2026-05-07 15:32 | 73.10779 | 13.54329 | 36143 ft | 496 kts | 332° |
| 2026-05-07 15:33 | 73.16864 | 13.43055 | 36145 ft | 497 kts | 332° |
| 2026-05-07 15:33 | 73.22940 | 13.31709 | 36146 ft | 497 kts | 332° |
| 2026-05-07 15:34 | 73.28970 | 13.20357 | 36148 ft | 497 kts | 332° |
| 2026-05-07 15:34 | 73.35034 | 13.08849 | 36153 ft | 497 kts | 332° |
| 2026-05-07 15:35 | 73.41101 | 12.97241 | 36153 ft | 497 kts | 332° |
| 2026-05-07 15:35 | 73.47113 | 12.85645 | 36159 ft | 497 kts | 332° |
| 2026-05-07 15:36 | 73.53167 | 12.73869 | 36168 ft | 497 kts | 332° |
| 2026-05-07 15:36 | 73.59216 | 12.62012 | 36174 ft | 497 kts | 332° |
| 2026-05-07 15:37 | 73.65253 | 12.50073 | 36175 ft | 498 kts | 332° |
| 2026-05-07 15:37 | 73.71287 | 12.38044 | 36180 ft | 498 kts | 331° |
| 2026-05-07 15:38 | 73.77321 | 12.25913 | 36184 ft | 497 kts | 331° |
| 2026-05-07 15:38 | 73.83353 | 12.13686 | 36191 ft | 498 kts | 331° |
| 2026-05-07 15:39 | 73.87930 | 12.04338 | 36191 ft | 498 kts | 331° |
| 2026-05-07 15:39 | 73.93942 | 11.91968 | 36192 ft | 498 kts | 331° |
| 2026-05-07 15:40 | 73.99952 | 11.79498 | 36200 ft | 498 kts | 331° |
| 2026-05-07 15:40 | 74.05947 | 11.66949 | 36199 ft | 498 kts | 331° |
| 2026-05-07 15:41 | 74.11945 | 11.54291 | 36200 ft | 498 kts | 330° |
| 2026-05-07 15:41 | 74.16927 | 11.43691 | 36202 ft | 498 kts | 330° |
| 2026-05-07 15:42 | 74.22909 | 11.30863 | 36201 ft | 498 kts | 330° |
| 2026-05-07 15:42 | 74.29861 | 11.15816 | 36205 ft | 498 kts | 330° |
| 2026-05-07 15:43 | 74.34867 | 11.04887 | 36209 ft | 498 kts | 330° |
| 2026-05-07 15:43 | 74.40826 | 10.91770 | 36211 ft | 498 kts | 330° |
| 2026-05-07 15:44 | 74.46785 | 10.78539 | 36218 ft | 498 kts | 330° |
| 2026-05-07 15:44 | 74.52718 | 10.65247 | 36219 ft | 498 kts | 330° |
| 2026-05-07 15:45 | 74.58661 | 10.51818 | 36220 ft | 498 kts | 329° |
| 2026-05-07 15:45 | 74.64587 | 10.38305 | 36219 ft | 498 kts | 329° |
| 2026-05-07 15:46 | 74.73430 | 10.17917 | 36226 ft | 498 kts | 329° |
| 2026-05-07 15:47 | 74.79374 | 10.04060 | 36223 ft | 498 kts | 329° |
| 2026-05-07 15:47 | 74.85278 | 9.90168 | 36230 ft | 498 kts | 329° |
| 2026-05-07 15:48 | 74.91134 | 9.76264 | 36229 ft | 498 kts | 329° |
| 2026-05-07 15:48 | 74.97014 | 9.62180 | 36240 ft | 498 kts | 329° |
| 2026-05-07 15:49 | 75.02415 | 9.49124 | 36253 ft | 498 kts | 329° |
| 2026-05-07 15:49 | 75.08280 | 9.34828 | 36251 ft | 498 kts | 328° |
| 2026-05-07 15:50 | 75.14142 | 9.20399 | 36250 ft | 498 kts | 328° |
| 2026-05-07 15:50 | 75.19988 | 9.05883 | 36254 ft | 498 kts | 328° |
| 2026-05-07 15:51 | 75.25834 | 8.91228 | 36259 ft | 499 kts | 328° |
| 2026-05-07 15:51 | 75.31672 | 8.76456 | 36258 ft | 499 kts | 328° |
| 2026-05-07 15:52 | 75.37493 | 8.61588 | 36263 ft | 499 kts | 328° |
| 2026-05-07 15:52 | 75.43021 | 8.47339 | 36260 ft | 499 kts | 328° |
| 2026-05-07 15:53 | 75.48828 | 8.32232 | 36264 ft | 499 kts | 327° |
| 2026-05-07 15:53 | 75.54620 | 8.17021 | 36265 ft | 499 kts | 327° |
| 2026-05-07 15:54 | 75.60238 | 8.02126 | 36266 ft | 498 kts | 327° |
| 2026-05-07 15:54 | 75.65240 | 7.88748 | 36270 ft | 498 kts | 327° |
| 2026-05-07 15:55 | 75.70997 | 7.73211 | 36267 ft | 498 kts | 327° |
| 2026-05-07 15:55 | 75.76752 | 7.57529 | 36260 ft | 498 kts | 327° |
| 2026-05-07 15:56 | 75.82497 | 7.41722 | 36271 ft | 498 kts | 326° |
| 2026-05-07 15:56 | 75.88220 | 7.25821 | 36265 ft | 498 kts | 326° |
| 2026-05-07 15:57 | 75.93935 | 7.09786 | 36269 ft | 497 kts | 326° |
| 2026-05-07 15:57 | 75.99627 | 6.93658 | 36271 ft | 497 kts | 326° |
| 2026-05-07 15:58 | 76.05321 | 6.77366 | 36271 ft | 498 kts | 326° |
| 2026-05-07 15:58 | 76.11003 | 6.60944 | 36265 ft | 498 kts | 326° |
| 2026-05-07 15:59 | 76.16687 | 6.44351 | 36273 ft | 499 kts | 326° |
| 2026-05-07 15:59 | 76.22358 | 6.27631 | 36274 ft | 499 kts | 325° |
| 2026-05-07 16:00 | 76.27981 | 6.10884 | 36273 ft | 498 kts | 325° |
| 2026-05-07 16:00 | 76.33617 | 5.93931 | 36268 ft | 496 kts | 325° |
| 2026-05-07 16:01 | 76.39220 | 5.76903 | 36268 ft | 496 kts | 325° |
| 2026-05-07 16:01 | 76.44818 | 5.59719 | 36266 ft | 496 kts | 324° |
| 2026-05-07 16:02 | 76.50404 | 5.42395 | 36268 ft | 497 kts | 324° |
| 2026-05-07 16:02 | 76.55983 | 5.24912 | 36267 ft | 496 kts | 324° |
| 2026-05-07 16:03 | 76.61541 | 5.07313 | 36266 ft | 496 kts | 324° |
| 2026-05-07 16:03 | 76.67087 | 4.89572 | 36265 ft | 497 kts | 324° |
| 2026-05-07 16:04 | 76.72637 | 4.71635 | 36261 ft | 497 kts | 324° |
| 2026-05-07 16:04 | 76.78169 | 4.53565 | 36261 ft | 497 kts | 324° |
| 2026-05-07 16:05 | 76.83696 | 4.35319 | 36257 ft | 497 kts | 324° |
| 2026-05-07 16:05 | 76.89203 | 4.16944 | 36265 ft | 497 kts | 323° |
| 2026-05-07 16:06 | 76.94705 | 3.98392 | 36259 ft | 497 kts | 323° |
| 2026-05-07 16:06 | 77.00193 | 3.79689 | 36260 ft | 497 kts | 323° |
| 2026-05-07 16:07 | 77.05659 | 3.60860 | 36257 ft | 497 kts | 323° |
| 2026-05-07 16:07 | 77.11117 | 3.41851 | 36256 ft | 497 kts | 323° |
| 2026-05-07 16:08 | 77.16552 | 3.22719 | 36250 ft | 497 kts | 323° |
| 2026-05-07 16:08 | 77.21978 | 3.03409 | 36250 ft | 497 kts | 322° |
| 2026-05-07 16:09 | 77.27382 | 2.83966 | 36253 ft | 496 kts | 322° |
| 2026-05-07 16:09 | 77.32740 | 2.64474 | 36252 ft | 496 kts | 322° |
| 2026-05-07 16:10 | 77.38153 | 2.44563 | 36255 ft | 496 kts | 322° |
| 2026-05-07 16:10 | 77.43471 | 2.24787 | 36256 ft | 496 kts | 322° |
| 2026-05-07 16:11 | 77.48814 | 2.04694 | 36258 ft | 496 kts | 322° |
| 2026-05-07 16:11 | 77.54134 | 1.84464 | 36259 ft | 496 kts | 322° |
| 2026-05-07 16:12 | 77.59444 | 1.64036 | 36264 ft | 495 kts | 321° |
| 2026-05-07 16:12 | 77.64739 | 1.43441 | 36270 ft | 496 kts | 321° |
| 2026-05-07 16:13 | 77.70010 | 1.22703 | 36271 ft | 495 kts | 321° |
| 2026-05-07 16:13 | 77.75261 | 1.01808 | 36280 ft | 495 kts | 321° |
| 2026-05-07 16:14 | 77.80502 | 0.80708 | 36281 ft | 495 kts | 321° |
| 2026-05-07 16:14 | 77.85727 | 0.59430 | 36284 ft | 495 kts | 321° |
| 2026-05-07 16:15 | 77.90927 | 0.38009 | 36292 ft | 494 kts | 320° |
| 2026-05-07 16:15 | 77.96115 | 0.16388 | 36295 ft | 494 kts | 320° |
| 2026-05-07 16:16 | 78.01279 | -0.05391 | 36298 ft | 494 kts | 320° |
| 2026-05-07 16:16 | 78.06469 | -0.27183 | 36302 ft | 495 kts | 320° |
| 2026-05-07 16:17 | 78.11622 | -0.49209 | 36307 ft | 494 kts | 320° |
| 2026-05-07 16:17 | 78.16764 | -0.71400 | 36312 ft | 494 kts | 320° |
| 2026-05-07 16:18 | 78.21851 | -0.93635 | 36318 ft | 494 kts | 320° |
| 2026-05-07 16:18 | 78.26948 | -1.16174 | 36319 ft | 494 kts | 319° |
| 2026-05-07 16:19 | 78.32029 | -1.38917 | 36326 ft | 493 kts | 319° |
| 2026-05-07 16:19 | 78.37095 | -1.61868 | 36328 ft | 494 kts | 319° |
| 2026-05-07 16:20 | 78.42139 | -1.85000 | 36329 ft | 494 kts | 319° |
| 2026-05-07 16:20 | 78.47167 | -2.08341 | 36335 ft | 494 kts | 318° |
| 2026-05-07 16:21 | 78.52178 | -2.31899 | 36337 ft | 493 kts | 318° |
| 2026-05-07 16:21 | 78.57169 | -2.55645 | 36348 ft | 493 kts | 318° |
| 2026-05-07 16:22 | 78.62129 | -2.79548 | 36347 ft | 493 kts | 317° |
| 2026-05-07 16:22 | 78.67073 | -3.03673 | 36354 ft | 493 kts | 317° |
| 2026-05-07 16:23 | 78.71989 | -3.27963 | 36355 ft | 492 kts | 317° |
| 2026-05-07 16:23 | 78.76889 | -3.52485 | 36371 ft | 492 kts | 317° |
| 2026-05-07 16:24 | 78.81770 | -3.77222 | 36370 ft | 493 kts | 316° |
| 2026-05-07 16:24 | 78.86624 | -4.02139 | 36372 ft | 492 kts | 316° |
| 2026-05-07 16:25 | 78.91426 | -4.27110 | 36374 ft | 492 kts | 316° |
| 2026-05-07 16:25 | 78.96268 | -4.52614 | 36376 ft | 492 kts | 316° |
| 2026-05-07 16:26 | 79.01059 | -4.78182 | 36375 ft | 492 kts | 315° |
| 2026-05-07 16:26 | 79.05826 | -5.03956 | 36377 ft | 492 kts | 315° |
| 2026-05-07 16:27 | 79.10570 | -5.29950 | 36376 ft | 493 kts | 315° |
| 2026-05-07 16:27 | 79.14924 | -5.54109 | 36378 ft | 494 kts | 314° |
| 2026-05-07 16:28 | 79.19643 | -5.80633 | 36381 ft | 494 kts | 314° |
| 2026-05-07 16:28 | 79.24344 | -6.07413 | 36379 ft | 493 kts | 314° |
| 2026-05-07 16:29 | 79.29017 | -6.34394 | 36381 ft | 493 kts | 314° |
| 2026-05-07 16:29 | 79.33662 | -6.61584 | 36382 ft | 494 kts | 313° |
| 2026-05-07 16:30 | 79.38291 | -6.89053 | 36381 ft | 493 kts | 313° |
| 2026-05-07 16:30 | 79.42882 | -7.16677 | 36379 ft | 492 kts | 313° |
| 2026-05-07 16:31 | 79.47382 | -7.44128 | 36380 ft | 491 kts | 313° |
| 2026-05-07 16:31 | 79.51948 | -7.72369 | 36377 ft | 491 kts | 312° |
| 2026-05-07 16:32 | 79.56459 | -8.00667 | 36377 ft | 492 kts | 312° |
| 2026-05-07 16:32 | 79.60920 | -8.29046 | 36378 ft | 492 kts | 312° |
| 2026-05-07 16:33 | 79.65387 | -8.57867 | 36373 ft | 493 kts | 311° |
| 2026-05-07 16:33 | 79.69868 | -8.87199 | 36374 ft | 493 kts | 311° |
| 2026-05-07 16:34 | 79.74249 | -9.16296 | 36375 ft | 492 kts | 311° |
| 2026-05-07 16:34 | 79.78628 | -9.45800 | 36371 ft | 491 kts | 311° |
| 2026-05-07 16:35 | 79.82969 | -9.75481 | 36377 ft | 491 kts | 310° |
| 2026-05-07 16:35 | 79.87291 | -10.05467 | 36373 ft | 490 kts | 310° |
| 2026-05-07 16:36 | 79.91578 | -10.35649 | 36374 ft | 491 kts | 310° |
| 2026-05-07 16:36 | 79.95849 | -10.66172 | 36374 ft | 491 kts | 309° |
| 2026-05-07 16:37 | 80.00089 | -10.96927 | 36368 ft | 491 kts | 309° |
| 2026-05-07 16:37 | 80.04303 | -11.27961 | 36369 ft | 491 kts | 309° |
| 2026-05-07 16:38 | 80.08481 | -11.59204 | 36368 ft | 491 kts | 308° |
| 2026-05-07 16:38 | 80.12639 | -11.90774 | 36369 ft | 492 kts | 308° |
| 2026-05-07 16:39 | 80.16766 | -12.22598 | 36375 ft | 492 kts | 308° |
| 2026-05-07 16:39 | 80.20873 | -12.54770 | 36373 ft | 493 kts | 308° |
| 2026-05-07 16:40 | 80.24944 | -12.87161 | 36371 ft | 492 kts | 307° |
| 2026-05-07 16:40 | 80.28986 | -13.19834 | 36371 ft | 492 kts | 307° |
| 2026-05-07 16:41 | 80.32997 | -13.52782 | 36369 ft | 492 kts | 307° |
| 2026-05-07 16:41 | 80.36972 | -13.85964 | 36365 ft | 492 kts | 306° |
| 2026-05-07 16:42 | 80.40915 | -14.19414 | 36365 ft | 491 kts | 306° |
| 2026-05-07 16:42 | 80.44818 | -14.53069 | 36369 ft | 490 kts | 306° |
| 2026-05-07 16:43 | 80.48675 | -14.86883 | 36366 ft | 489 kts | 305° |
| 2026-05-07 16:43 | 80.52495 | -15.20926 | 36366 ft | 489 kts | 305° |
| 2026-05-07 16:44 | 80.56294 | -15.55351 | 36364 ft | 491 kts | 304° |
| 2026-05-07 16:44 | 80.60067 | -15.90123 | 36365 ft | 492 kts | 304° |
| 2026-05-07 16:45 | 80.63812 | -16.25235 | 36364 ft | 492 kts | 304° |
| 2026-05-07 16:45 | 80.67512 | -16.60525 | 36357 ft | 491 kts | 303° |
| 2026-05-07 16:46 | 80.71175 | -16.96069 | 36355 ft | 490 kts | 303° |
| 2026-05-07 16:46 | 80.74767 | -17.31544 | 36353 ft | 489 kts | 303° |
| 2026-05-07 16:47 | 80.78351 | -17.67561 | 36352 ft | 490 kts | 302° |
| 2026-05-07 16:47 | 80.81903 | -18.03901 | 36353 ft | 490 kts | 302° |
| 2026-05-07 16:48 | 80.85421 | -18.40547 | 36354 ft | 491 kts | 302° |
| 2026-05-07 16:48 | 80.88911 | -18.77561 | 36355 ft | 491 kts | 301° |
| 2026-05-07 16:49 | 80.92354 | -19.14764 | 36358 ft | 490 kts | 301° |
| 2026-05-07 16:49 | 80.95760 | -19.52247 | 36360 ft | 490 kts | 301° |
| 2026-05-07 16:50 | 80.98575 | -19.83767 | 36360 ft | 489 kts | 300° |
| 2026-05-07 16:50 | 81.01871 | -20.21750 | 36363 ft | 489 kts | 298° |
| 2026-05-07 16:51 | 81.05000 | -20.60164 | 36361 ft | 489 kts | 298° |
| 2026-05-07 16:51 | 81.08199 | -20.99143 | 36364 ft | 490 kts | 298° |
| 2026-05-07 16:52 | 81.11287 | -21.38128 | 36368 ft | 491 kts | 298° |
| 2026-05-07 16:52 | 81.14373 | -21.77561 | 36367 ft | 491 kts | 297° |
| 2026-05-07 16:53 | 81.17407 | -22.17279 | 36371 ft | 490 kts | 297° |
| 2026-05-07 16:53 | 81.20393 | -22.57121 | 36366 ft | 489 kts | 296° |
| 2026-05-07 16:54 | 81.23334 | -22.97214 | 36365 ft | 488 kts | 296° |
| 2026-05-07 16:54 | 81.26228 | -23.37512 | 36366 ft | 488 kts | 296° |
| 2026-05-07 16:55 | 81.29077 | -23.78026 | 36364 ft | 488 kts | 295° |
| 2026-05-07 16:55 | 81.31890 | -24.18923 | 36361 ft | 489 kts | 295° |
| 2026-05-07 16:56 | 81.34658 | -24.60046 | 36361 ft | 489 kts | 294° |
| 2026-05-07 16:56 | 81.38728 | -25.22258 | 36364 ft | 488 kts | 294° |
| 2026-05-07 16:57 | 81.41377 | -25.63924 | 36367 ft | 487 kts | 293° |
| 2026-05-07 16:57 | 81.43985 | -26.05901 | 36366 ft | 488 kts | 293° |
| 2026-05-07 16:58 | 81.46551 | -26.48180 | 36391 ft | 492 kts | 291° |
| 2026-05-07 16:58 | 81.49107 | -26.91344 | 36381 ft | 497 kts | 291° |
| 2026-05-07 16:59 | 81.51623 | -27.34879 | 36378 ft | 497 kts | 291° |
| 2026-05-07 16:59 | 81.54091 | -27.78708 | 36388 ft | 497 kts | 290° |
| 2026-05-07 17:00 | 81.56510 | -28.22781 | 36380 ft | 497 kts | 290° |
| 2026-05-07 17:00 | 81.58875 | -28.67015 | 36380 ft | 497 kts | 289° |
| 2026-05-07 17:01 | 81.61192 | -29.11525 | 36382 ft | 496 kts | 289° |
| 2026-05-07 17:01 | 81.63456 | -29.56218 | 36381 ft | 497 kts | 288° |
| 2026-05-07 17:02 | 81.65674 | -30.01236 | 36384 ft | 497 kts | 288° |
| 2026-05-07 17:02 | 81.67839 | -30.46449 | 36384 ft | 497 kts | 288° |
| 2026-05-07 17:03 | 81.69938 | -30.91594 | 36383 ft | 496 kts | 287° |
| 2026-05-07 17:03 | 81.71995 | -31.37137 | 36378 ft | 495 kts | 287° |
| 2026-05-07 17:04 | 81.73998 | -31.82886 | 36372 ft | 494 kts | 286° |
| 2026-05-07 17:04 | 81.75961 | -32.29126 | 36368 ft | 495 kts | 286° |
| 2026-05-07 17:05 | 81.77844 | -32.74927 | 36374 ft | 495 kts | 285° |
| 2026-05-07 17:05 | 81.79690 | -33.21300 | 36371 ft | 494 kts | 285° |
| 2026-05-07 17:06 | 81.81479 | -33.67788 | 36369 ft | 494 kts | 284° |
| 2026-05-07 17:06 | 81.83218 | -34.14564 | 36365 ft | 495 kts | 284° |
| 2026-05-07 17:07 | 81.84903 | -34.61554 | 36359 ft | 496 kts | 283° |
| 2026-05-07 17:07 | 81.86539 | -35.08873 | 36368 ft | 496 kts | 283° |
| 2026-05-07 17:08 | 81.88117 | -35.56303 | 36367 ft | 496 kts | 283° |
| 2026-05-07 17:08 | 81.89641 | -36.03931 | 36367 ft | 495 kts | 282° |
| 2026-05-07 17:09 | 81.91109 | -36.51695 | 36366 ft | 495 kts | 282° |
| 2026-05-07 17:09 | 81.92518 | -36.99558 | 36369 ft | 495 kts | 281° |
| 2026-05-07 17:10 | 81.93873 | -37.47640 | 36368 ft | 495 kts | 281° |
| 2026-05-07 17:10 | 81.95171 | -37.95796 | 36368 ft | 495 kts | 280° |
| 2026-05-07 17:11 | 81.96404 | -38.43824 | 36378 ft | 495 kts | 280° |
| 2026-05-07 17:11 | 81.97595 | -38.92557 | 36377 ft | 494 kts | 279° |
| 2026-05-07 17:12 | 81.98723 | -39.41153 | 36383 ft | 494 kts | 279° |
| 2026-05-07 17:12 | 81.99791 | -39.89809 | 36376 ft | 494 kts | 278° |
| 2026-05-07 17:13 | 82.00946 | -40.38142 | 36376 ft | 494 kts | 278° |
| 2026-05-07 17:13 | 82.02004 | -40.86926 | 36380 ft | 494 kts | 279° |
| 2026-05-07 17:14 | 82.03086 | -41.35798 | 36377 ft | 494 kts | 278° |
| 2026-05-07 17:14 | 82.04061 | -41.84885 | 36379 ft | 494 kts | 278° |
| 2026-05-07 17:15 | 82.05007 | -42.34000 | 36381 ft | 494 kts | 277° |
| 2026-05-07 17:15 | 82.05878 | -42.83279 | 36387 ft | 494 kts | 277° |
| 2026-05-07 17:16 | 82.06701 | -43.32619 | 36382 ft | 494 kts | 276° |
| 2026-05-07 17:16 | 82.07459 | -43.81988 | 36390 ft | 494 kts | 276° |
| 2026-05-07 17:17 | 82.08163 | -44.31592 | 36397 ft | 495 kts | 275° |
| 2026-05-07 17:17 | 82.08809 | -44.81358 | 36399 ft | 496 kts | 275° |
| 2026-05-07 17:18 | 82.09397 | -45.31323 | 36402 ft | 496 kts | 275° |
| 2026-05-07 17:18 | 82.09925 | -45.81251 | 36408 ft | 496 kts | 274° |
| 2026-05-07 17:19 | 82.10393 | -46.31214 | 36414 ft | 494 kts | 274° |
| 2026-05-07 17:19 | 82.10800 | -46.81062 | 36409 ft | 494 kts | 273° |
| 2026-05-07 17:20 | 82.11146 | -47.30597 | 36406 ft | 493 kts | 272° |
| 2026-05-07 17:20 | 82.11436 | -47.80532 | 36407 ft | 494 kts | 272° |
| 2026-05-07 17:21 | 82.11667 | -48.30533 | 36411 ft | 495 kts | 272° |
| 2026-05-07 17:21 | 82.11839 | -48.80949 | 36408 ft | 495 kts | 271° |
| 2026-05-07 17:22 | 82.11950 | -49.30747 | 36411 ft | 494 kts | 271° |
| 2026-05-07 17:22 | 82.12003 | -49.80828 | 36413 ft | 494 kts | 270° |
| 2026-05-07 17:23 | 82.11996 | -50.30756 | 36411 ft | 493 kts | 270° |
| 2026-05-07 17:23 | 82.11930 | -50.80688 | 36412 ft | 492 kts | 269° |
| 2026-05-07 17:24 | 82.11805 | -51.30546 | 36416 ft | 493 kts | 269° |
| 2026-05-07 17:24 | 82.11621 | -51.80470 | 36413 ft | 493 kts | 268° |
| 2026-05-07 17:25 | 82.11377 | -52.30451 | 36417 ft | 494 kts | 268° |
| 2026-05-07 17:25 | 82.11075 | -52.80379 | 36419 ft | 494 kts | 268° |
| 2026-05-07 17:26 | 82.10713 | -53.30262 | 36426 ft | 493 kts | 267° |
| 2026-05-07 17:26 | 82.10293 | -53.79985 | 36420 ft | 492 kts | 266° |
| 2026-05-07 17:27 | 82.09815 | -54.29550 | 36416 ft | 492 kts | 266° |
| 2026-05-07 17:27 | 82.09282 | -54.78807 | 36410 ft | 492 kts | 266° |
| 2026-05-07 17:28 | 82.08684 | -55.28595 | 36402 ft | 492 kts | 265° |
| 2026-05-07 17:28 | 82.08036 | -55.77658 | 36401 ft | 491 kts | 265° |
| 2026-05-07 17:29 | 82.07328 | -56.26816 | 36397 ft | 490 kts | 264° |
| 2026-05-07 17:29 | 82.06562 | -56.75867 | 36399 ft | 490 kts | 264° |
| 2026-05-07 17:30 | 82.05740 | -57.24797 | 36399 ft | 491 kts | 263° |
| 2026-05-07 17:30 | 82.04858 | -57.73772 | 36400 ft | 491 kts | 263° |
| 2026-05-07 17:31 | 82.03919 | -58.22624 | 36405 ft | 491 kts | 263° |
| 2026-05-07 17:31 | 82.02926 | -58.71231 | 36403 ft | 490 kts | 262° |
| 2026-05-07 17:32 | 82.01876 | -59.19700 | 36400 ft | 489 kts | 262° |
| 2026-05-07 17:32 | 82.00956 | -59.60078 | 36403 ft | 489 kts | 261° |
| 2026-05-07 17:33 | 82.00429 | -60.16321 | 36440 ft | 487 kts | 279° |
| 2026-05-07 17:33 | 82.01513 | -60.64337 | 36419 ft | 487 kts | 280° |
| 2026-05-07 17:34 | 82.02584 | -61.12483 | 36421 ft | 486 kts | 279° |
| 2026-05-07 17:34 | 82.03582 | -61.60643 | 36427 ft | 486 kts | 279° |
| 2026-05-07 17:35 | 82.04535 | -62.08976 | 36434 ft | 486 kts | 278° |
| 2026-05-07 17:35 | 82.05427 | -62.57423 | 36444 ft | 486 kts | 278° |
| 2026-05-07 17:36 | 82.06263 | -63.05882 | 36434 ft | 486 kts | 277° |
| 2026-05-07 17:36 | 82.06920 | -63.46566 | 36420 ft | 485 kts | 277° |
| 2026-05-07 17:37 | 82.07651 | -63.95119 | 36407 ft | 485 kts | 277° |
| 2026-05-07 17:37 | 82.08327 | -64.43835 | 36403 ft | 485 kts | 276° |
| 2026-05-07 17:38 | 82.08946 | -64.92599 | 36396 ft | 485 kts | 276° |
| 2026-05-07 17:38 | 82.09508 | -65.41368 | 36391 ft | 485 kts | 275° |
| 2026-05-07 17:39 | 82.10013 | -65.90215 | 36390 ft | 485 kts | 275° |
| 2026-05-07 17:39 | 82.10461 | -66.39144 | 36387 ft | 484 kts | 274° |
| 2026-05-07 17:40 | 82.10852 | -66.88033 | 36385 ft | 483 kts | 274° |
| 2026-05-07 17:40 | 82.11183 | -67.36497 | 36386 ft | 483 kts | 273° |
| 2026-05-07 17:41 | 82.11461 | -67.85344 | 36382 ft | 482 kts | 273° |
| 2026-05-07 17:41 | 82.11681 | -68.34135 | 36383 ft | 482 kts | 272° |
| 2026-05-07 17:42 | 82.11845 | -68.83007 | 36380 ft | 482 kts | 272° |
| 2026-05-07 17:42 | 82.11952 | -69.31847 | 36375 ft | 482 kts | 271° |
| 2026-05-07 17:43 | 82.12002 | -69.80742 | 36373 ft | 482 kts | 271° |
| 2026-05-07 17:43 | 82.11996 | -70.29590 | 36370 ft | 482 kts | 271° |
| 2026-05-07 17:44 | 82.11934 | -70.78460 | 36368 ft | 482 kts | 270° |
| 2026-05-07 17:44 | 82.11815 | -71.27316 | 36363 ft | 482 kts | 270° |
| 2026-05-07 17:45 | 82.11639 | -71.76155 | 36359 ft | 483 kts | 269° |
| 2026-05-07 17:45 | 82.11406 | -72.25000 | 36352 ft | 482 kts | 269° |
| 2026-05-07 17:46 | 82.11119 | -72.73715 | 36340 ft | 482 kts | 268° |
| 2026-05-07 17:46 | 82.10773 | -73.22436 | 36339 ft | 481 kts | 268° |
| 2026-05-07 17:47 | 82.10372 | -73.71029 | 36331 ft | 481 kts | 267° |
| 2026-05-07 17:47 | 82.09917 | -74.19452 | 36334 ft | 480 kts | 267° |
| 2026-05-07 17:48 | 82.09409 | -74.67496 | 36333 ft | 479 kts | 266° |
| 2026-05-07 17:48 | 82.08841 | -75.15943 | 36333 ft | 478 kts | 266° |
| 2026-05-07 17:49 | 82.08226 | -75.63692 | 36334 ft | 478 kts | 265° |
| 2026-05-07 17:49 | 82.07548 | -76.11914 | 36332 ft | 478 kts | 265° |
| 2026-05-07 17:50 | 82.06824 | -76.59463 | 36341 ft | 478 kts | 265° |
| 2026-05-07 17:50 | 82.06043 | -77.07159 | 36339 ft | 477 kts | 264° |
| 2026-05-07 17:51 | 82.05207 | -77.54772 | 36345 ft | 477 kts | 264° |
| 2026-05-07 17:51 | 82.04317 | -78.02270 | 36355 ft | 477 kts | 263° |
| 2026-05-07 17:52 | 82.03375 | -78.49589 | 36357 ft | 477 kts | 263° |
| 2026-05-07 17:52 | 82.02378 | -78.96835 | 36358 ft | 477 kts | 262° |
| 2026-05-07 17:53 | 82.01330 | -79.43871 | 36362 ft | 477 kts | 262° |
| 2026-05-07 17:53 | 82.00341 | -79.90943 | 36386 ft | 474 kts | 269° |
| 2026-05-07 17:54 | 82.00913 | -80.37944 | 36375 ft | 475 kts | 279° |
| 2026-05-07 17:54 | 82.01975 | -80.84843 | 36378 ft | 475 kts | 279° |
| 2026-05-07 17:55 | 82.02991 | -81.31815 | 36381 ft | 475 kts | 279° |
| 2026-05-07 17:55 | 82.03944 | -81.78658 | 36392 ft | 475 kts | 278° |
| 2026-05-07 17:56 | 82.04858 | -82.26211 | 36398 ft | 475 kts | 278° |
| 2026-05-07 17:56 | 82.05705 | -82.73187 | 36392 ft | 475 kts | 277° |
| 2026-05-07 17:57 | 82.06380 | -83.12931 | 36393 ft | 475 kts | 277° |
| 2026-05-07 17:57 | 82.07251 | -83.68088 | 36391 ft | 475 kts | 276° |
| 2026-05-07 17:58 | 82.07943 | -84.15662 | 36392 ft | 474 kts | 276° |
| 2026-05-07 17:58 | 82.08580 | -84.63241 | 36395 ft | 475 kts | 276° |
| 2026-05-07 17:59 | 82.09164 | -85.10942 | 36396 ft | 474 kts | 275° |
| 2026-05-07 17:59 | 82.09692 | -85.58603 | 36397 ft | 474 kts | 275° |
| 2026-05-07 18:00 | 82.10167 | -86.06413 | 36393 ft | 474 kts | 274° |
| 2026-05-07 18:00 | 82.10588 | -86.54213 | 36391 ft | 474 kts | 274° |
| 2026-05-07 18:01 | 82.10954 | -87.02122 | 36389 ft | 474 kts | 273° |
| 2026-05-07 18:01 | 82.11266 | -87.50051 | 36386 ft | 474 kts | 272° |
| 2026-05-07 18:02 | 82.11631 | -88.21952 | 36386 ft | 474 kts | 272° |
| 2026-05-07 18:03 | 82.11805 | -88.69641 | 36388 ft | 474 kts | 271° |
| 2026-05-07 18:03 | 82.11926 | -89.17534 | 36391 ft | 473 kts | 271° |
| 2026-05-07 18:04 | 82.11993 | -89.65459 | 36389 ft | 473 kts | 270° |
| 2026-05-07 18:04 | 82.12004 | -90.13309 | 36381 ft | 472 kts | 270° |
| 2026-05-07 18:05 | 82.11962 | -90.61139 | 36379 ft | 471 kts | 270° |
| 2026-05-07 18:05 | 82.11866 | -91.08884 | 36380 ft | 472 kts | 269° |
| 2026-05-07 18:06 | 82.11715 | -91.56757 | 36380 ft | 472 kts | 269° |
| 2026-05-07 18:06 | 82.11511 | -92.04516 | 36377 ft | 472 kts | 268° |
| 2026-05-07 18:07 | 82.11252 | -92.52236 | 36377 ft | 471 kts | 268° |
| 2026-05-07 18:07 | 82.10939 | -92.99917 | 36376 ft | 472 kts | 267° |
| 2026-05-07 18:08 | 82.10573 | -93.47502 | 36374 ft | 471 kts | 267° |
| 2026-05-07 18:08 | 82.10153 | -93.95066 | 36372 ft | 471 kts | 266° |
| 2026-05-07 18:09 | 82.09680 | -94.42528 | 36378 ft | 471 kts | 266° |
| 2026-05-07 18:09 | 82.09153 | -94.89986 | 36371 ft | 471 kts | 265° |
| 2026-05-07 18:10 | 82.08573 | -95.37306 | 36368 ft | 471 kts | 265° |
| 2026-05-07 18:10 | 82.07943 | -95.84312 | 36368 ft | 471 kts | 264° |
| 2026-05-07 18:11 | 82.07255 | -96.31600 | 36370 ft | 472 kts | 264° |
| 2026-05-07 18:11 | 82.06515 | -96.78738 | 36368 ft | 471 kts | 263° |
| 2026-05-07 18:12 | 82.05722 | -97.25785 | 36366 ft | 471 kts | 263° |
| 2026-05-07 18:12 | 82.04878 | -97.72658 | 36364 ft | 471 kts | 263° |
| 2026-05-07 18:13 | 82.03979 | -98.19549 | 36364 ft | 471 kts | 262° |
| 2026-05-07 18:13 | 82.03029 | -98.66279 | 36364 ft | 472 kts | 262° |
| 2026-05-07 18:14 | 82.02025 | -99.12970 | 36359 ft | 471 kts | 261° |
| 2026-05-07 18:14 | 82.00971 | -99.59429 | 36363 ft | 471 kts | 261° |
| 2026-05-07 18:15 | 81.99886 | -100.05802 | 36362 ft | 470 kts | 263° |
| 2026-05-07 18:15 | 81.98873 | -100.52202 | 36367 ft | 471 kts | 261° |
| 2026-05-07 18:16 | 81.97802 | -100.98497 | 36378 ft | 472 kts | 261° |
| 2026-05-07 18:16 | 81.96691 | -101.44764 | 36369 ft | 472 kts | 260° |
| 2026-05-07 18:17 | 81.95516 | -101.90807 | 36364 ft | 471 kts | 260° |
| 2026-05-07 18:17 | 81.94301 | -102.36756 | 36369 ft | 471 kts | 259° |
| 2026-05-07 18:18 | 81.93028 | -102.82487 | 36358 ft | 471 kts | 259° |
| 2026-05-07 18:18 | 81.91708 | -103.28175 | 36364 ft | 471 kts | 258° |
| 2026-05-07 18:19 | 81.90334 | -103.73707 | 36357 ft | 471 kts | 258° |
| 2026-05-07 18:19 | 81.88923 | -104.18723 | 36366 ft | 471 kts | 257° |
| 2026-05-07 18:20 | 81.87449 | -104.63938 | 36368 ft | 472 kts | 257° |
| 2026-05-07 18:20 | 81.85928 | -105.08951 | 36363 ft | 471 kts | 256° |
| 2026-05-07 18:21 | 81.84358 | -105.53788 | 36366 ft | 472 kts | 256° |
| 2026-05-07 18:21 | 81.82735 | -105.98548 | 36356 ft | 472 kts | 256° |
| 2026-05-07 18:22 | 81.81060 | -106.43189 | 36363 ft | 473 kts | 255° |
| 2026-05-07 18:22 | 81.79335 | -106.87695 | 36362 ft | 473 kts | 255° |
| 2026-05-07 18:23 | 81.77563 | -107.31980 | 36360 ft | 473 kts | 254° |
| 2026-05-07 18:23 | 81.75738 | -107.76148 | 36359 ft | 474 kts | 253° |
| 2026-05-07 18:23 | 81.74816 | -107.97970 | 36762 ft | 468 kts | 253° |
| 2026-05-07 18:24 | 81.73885 | -108.19693 | 36915 ft | 469 kts | 253° |
| 2026-05-07 18:24 | 81.72940 | -108.41417 | 37103 ft | 470 kts | 253° |
| 2026-05-07 18:24 | 81.71981 | -108.63122 | 37283 ft | 470 kts | 253° |
| 2026-05-07 18:24 | 81.71339 | -108.77486 | 37408 ft | 471 kts | 253° |
| 2026-05-07 18:25 | 81.70361 | -108.99103 | 37570 ft | 472 kts | 252° |
| 2026-05-07 18:25 | 81.69368 | -109.20758 | 37759 ft | 472 kts | 252° |
| 2026-05-07 18:25 | 81.68032 | -109.49405 | 37970 ft | 473 kts | 252° |
| 2026-05-07 18:26 | 81.66310 | -109.85571 | 38219 ft | 475 kts | 251° |
| 2026-05-07 18:26 | 81.65261 | -110.07195 | 38347 ft | 477 kts | 251° |
| 2026-05-07 18:26 | 81.64195 | -110.28894 | 38336 ft | 481 kts | 251° |
| 2026-05-07 18:27 | 81.62021 | -110.72230 | 38327 ft | 479 kts | 251° |
| 2026-05-07 18:27 | 81.59813 | -111.15082 | 38334 ft | 476 kts | 250° |
| 2026-05-07 18:28 | 81.57570 | -111.57502 | 38332 ft | 475 kts | 250° |
| 2026-05-07 18:28 | 81.55280 | -111.99738 | 38327 ft | 475 kts | 249° |
| 2026-05-07 18:29 | 81.52959 | -112.41498 | 38326 ft | 475 kts | 249° |
| 2026-05-07 18:29 | 81.50581 | -112.83241 | 38324 ft | 476 kts | 249° |
| 2026-05-07 18:30 | 81.48153 | -113.24854 | 38326 ft | 476 kts | 248° |
| 2026-05-07 18:30 | 81.45681 | -113.66224 | 38322 ft | 477 kts | 248° |
| 2026-05-07 18:31 | 81.43160 | -114.07463 | 38331 ft | 477 kts | 247° |
| 2026-05-07 18:31 | 81.40595 | -114.48454 | 38333 ft | 478 kts | 247° |
| 2026-05-07 18:32 | 81.37982 | -114.89266 | 38327 ft | 478 kts | 246° |
| 2026-05-07 18:32 | 81.35326 | -115.29844 | 38325 ft | 478 kts | 246° |
| 2026-05-07 18:33 | 81.32631 | -115.70127 | 38323 ft | 478 kts | 246° |
| 2026-05-07 18:33 | 81.29891 | -116.10198 | 38320 ft | 478 kts | 245° |
| 2026-05-07 18:34 | 81.27111 | -116.49999 | 38319 ft | 478 kts | 245° |
| 2026-05-07 18:34 | 81.24283 | -116.89635 | 38323 ft | 479 kts | 244° |
| 2026-05-07 18:35 | 81.21416 | -117.29004 | 38319 ft | 478 kts | 244° |
| 2026-05-07 18:35 | 81.18531 | -117.67806 | 38317 ft | 479 kts | 244° |
| 2026-05-07 18:36 | 81.15584 | -118.06641 | 38319 ft | 479 kts | 243° |
| 2026-05-07 18:36 | 81.12595 | -118.45257 | 38313 ft | 479 kts | 243° |
| 2026-05-07 18:37 | 81.09569 | -118.83578 | 38312 ft | 479 kts | 243° |
| 2026-05-07 18:37 | 81.06500 | -119.21698 | 38311 ft | 479 kts | 242° |
| 2026-05-07 18:38 | 81.03388 | -119.59601 | 38310 ft | 479 kts | 242° |
| 2026-05-07 18:38 | 81.00246 | -119.97162 | 38311 ft | 479 kts | 242° |
| 2026-05-07 18:39 | 80.97299 | -120.35292 | 38305 ft | 479 kts | 243° |
| 2026-05-07 18:39 | 80.94310 | -120.73128 | 38307 ft | 479 kts | 243° |
| 2026-05-07 18:40 | 80.91303 | -121.10869 | 38303 ft | 479 kts | 243° |
| 2026-05-07 18:40 | 80.88244 | -121.48251 | 38299 ft | 479 kts | 242° |
| 2026-05-07 18:41 | 80.85153 | -121.85494 | 38301 ft | 480 kts | 242° |
| 2026-05-07 18:41 | 80.82015 | -122.22486 | 38300 ft | 480 kts | 242° |
| 2026-05-07 18:42 | 80.78868 | -122.58956 | 38295 ft | 480 kts | 241° |
| 2026-05-07 18:42 | 80.75657 | -122.95457 | 38296 ft | 480 kts | 241° |
| 2026-05-07 18:43 | 80.72416 | -123.31656 | 38297 ft | 480 kts | 240° |
| 2026-05-07 18:43 | 80.69133 | -123.67662 | 38296 ft | 480 kts | 240° |
| 2026-05-07 18:44 | 80.65813 | -124.03430 | 38291 ft | 480 kts | 239° |
| 2026-05-07 18:44 | 80.62460 | -124.38913 | 38285 ft | 481 kts | 239° |
| 2026-05-07 18:45 | 80.59070 | -124.74160 | 38287 ft | 481 kts | 239° |
| 2026-05-07 18:45 | 80.55645 | -125.09171 | 38288 ft | 480 kts | 239° |
| 2026-05-07 18:46 | 80.52184 | -125.43930 | 38289 ft | 480 kts | 238° |
| 2026-05-07 18:46 | 80.48693 | -125.78409 | 38284 ft | 481 kts | 238° |
| 2026-05-07 18:47 | 80.45162 | -126.12701 | 38276 ft | 481 kts | 238° |
| 2026-05-07 18:47 | 80.41599 | -126.46719 | 38277 ft | 481 kts | 237° |
| 2026-05-07 18:48 | 80.37998 | -126.80542 | 38275 ft | 481 kts | 237° |
| 2026-05-07 18:48 | 80.34367 | -127.14089 | 38273 ft | 482 kts | 237° |
| 2026-05-07 18:49 | 80.30695 | -127.47457 | 38271 ft | 482 kts | 236° |
| 2026-05-07 18:49 | 80.26994 | -127.80561 | 38272 ft | 482 kts | 236° |
| 2026-05-07 18:50 | 80.23264 | -128.13384 | 38271 ft | 482 kts | 236° |
| 2026-05-07 18:50 | 80.19501 | -128.45977 | 38265 ft | 481 kts | 235° |
| 2026-05-07 18:51 | 80.15714 | -128.78256 | 38264 ft | 481 kts | 235° |
| 2026-05-07 18:51 | 80.11893 | -129.10331 | 38261 ft | 481 kts | 234° |
| 2026-05-07 18:52 | 80.08039 | -129.42179 | 38259 ft | 481 kts | 234° |
| 2026-05-07 18:52 | 80.04160 | -129.73742 | 38256 ft | 482 kts | 234° |
| 2026-05-07 18:53 | 80.00238 | -130.05163 | 38250 ft | 483 kts | 234° |
| 2026-05-07 18:53 | 79.96285 | -130.36366 | 38241 ft | 484 kts | 233° |
| 2026-05-07 18:54 | 79.92296 | -130.67375 | 38247 ft | 483 kts | 233° |
| 2026-05-07 18:54 | 79.88279 | -130.98135 | 38242 ft | 483 kts | 233° |
| 2026-05-07 18:55 | 79.84242 | -131.28596 | 38244 ft | 483 kts | 232° |
| 2026-05-07 18:55 | 79.80170 | -131.58865 | 38245 ft | 483 kts | 232° |
| 2026-05-07 18:56 | 79.76078 | -131.88839 | 38243 ft | 483 kts | 232° |
| 2026-05-07 18:56 | 79.71954 | -132.18610 | 38234 ft | 483 kts | 232° |
| 2026-05-07 18:57 | 79.67808 | -132.48114 | 38236 ft | 483 kts | 231° |
| 2026-05-07 18:57 | 79.63628 | -132.77431 | 38234 ft | 483 kts | 231° |
| 2026-05-07 18:58 | 79.59423 | -133.06508 | 38234 ft | 483 kts | 231° |
| 2026-05-07 18:58 | 79.55196 | -133.35326 | 38227 ft | 483 kts | 231° |
| 2026-05-07 18:59 | 79.50935 | -133.63974 | 38228 ft | 484 kts | 230° |
| 2026-05-07 18:59 | 79.46672 | -133.92227 | 38230 ft | 485 kts | 230° |
| 2026-05-07 19:00 | 79.42341 | -134.20541 | 38229 ft | 486 kts | 230° |
| 2026-05-07 19:00 | 79.37992 | -134.48580 | 38221 ft | 485 kts | 230° |
| 2026-05-07 19:01 | 79.33617 | -134.76400 | 38223 ft | 485 kts | 229° |
| 2026-05-07 19:01 | 79.29222 | -135.03969 | 38216 ft | 486 kts | 229° |
| 2026-05-07 19:02 | 79.24792 | -135.31384 | 38223 ft | 486 kts | 229° |
| 2026-05-07 19:02 | 79.20343 | -135.58540 | 38224 ft | 486 kts | 229° |
| 2026-05-07 19:03 | 79.15870 | -135.85483 | 38218 ft | 485 kts | 228° |
| 2026-05-07 19:03 | 79.11377 | -136.12186 | 38217 ft | 485 kts | 228° |
| 2026-05-07 19:04 | 79.06873 | -136.38605 | 38216 ft | 484 kts | 228° |
| 2026-05-07 19:04 | 79.02345 | -136.64820 | 38210 ft | 484 kts | 227° |
| 2026-05-07 19:05 | 78.97800 | -136.90783 | 38210 ft | 484 kts | 227° |
| 2026-05-07 19:05 | 78.93225 | -137.16589 | 38208 ft | 484 kts | 227° |
| 2026-05-07 19:06 | 78.88629 | -137.42174 | 38208 ft | 485 kts | 227° |
| 2026-05-07 19:06 | 78.81686 | -137.80218 | 38205 ft | 485 kts | 226° |
| 2026-05-07 19:07 | 78.77035 | -138.05292 | 38203 ft | 485 kts | 226° |
| 2026-05-07 19:07 | 78.72359 | -138.30190 | 38201 ft | 485 kts | 226° |
| 2026-05-07 19:08 | 78.67668 | -138.54858 | 38200 ft | 485 kts | 226° |
| 2026-05-07 19:08 | 78.62978 | -138.79208 | 38201 ft | 485 kts | 225° |
| 2026-05-07 19:09 | 78.58238 | -139.03520 | 38203 ft | 485 kts | 225° |
| 2026-05-07 19:09 | 78.53483 | -139.27606 | 38201 ft | 485 kts | 225° |
| 2026-05-07 19:10 | 78.48699 | -139.51537 | 38195 ft | 485 kts | 225° |
| 2026-05-07 19:10 | 78.43904 | -139.75239 | 38196 ft | 485 kts | 225° |
| 2026-05-07 19:11 | 78.39082 | -139.98780 | 38193 ft | 486 kts | 224° |
| 2026-05-07 19:11 | 78.34245 | -140.22115 | 38192 ft | 486 kts | 224° |
| 2026-05-07 19:12 | 78.29380 | -140.45301 | 38193 ft | 486 kts | 224° |
| 2026-05-07 19:12 | 78.24501 | -140.68276 | 38199 ft | 486 kts | 224° |
| 2026-05-07 19:13 | 78.20427 | -140.87253 | 38199 ft | 486 kts | 224° |
| 2026-05-07 19:13 | 78.15638 | -141.10463 | 38189 ft | 486 kts | 226° |
| 2026-05-07 19:14 | 78.10946 | -141.34119 | 38185 ft | 486 kts | 226° |
| 2026-05-07 19:14 | 78.06251 | -141.57681 | 38187 ft | 486 kts | 226° |
| 2026-05-07 19:15 | 78.01535 | -141.81005 | 38191 ft | 486 kts | 226° |
| 2026-05-07 19:15 | 77.96794 | -142.04195 | 38199 ft | 486 kts | 226° |
| 2026-05-07 19:16 | 77.92040 | -142.27178 | 38198 ft | 486 kts | 225° |
| 2026-05-07 19:16 | 77.87260 | -142.50007 | 38198 ft | 486 kts | 225° |
| 2026-05-07 19:17 | 77.82470 | -142.72631 | 38196 ft | 486 kts | 225° |
| 2026-05-07 19:17 | 77.77654 | -142.95108 | 38199 ft | 486 kts | 225° |